sensor_id;sensor_type;location;lat;lon;timestamp;temperature;humidity
35305;DHT22;26433;48.034;-1.764;2023-04-15T05:01:16;8.80;90.30
35305;DHT22;26433;48.034;-1.764;2023-04-15T05:06:19;8.80;90.20
35305;DHT22;26433;48.034;-1.764;2023-04-15T05:11:23;8.80;90.20
35305;DHT22;26433;48.034;-1.764;2023-04-15T05:16:27;8.70;90.40
35305;DHT22;26433;48.034;-1.764;2023-04-15T05:21:31;8.80;90.40
35305;DHT22;26433;48.034;-1.764;2023-04-15T05:26:34;8.70;90.30
35305;DHT22;26433;48.034;-1.764;2023-04-15T05:31:39;8.70;90.40
35305;DHT22;26433;48.034;-1.764;2023-04-15T05:36:43;8.70;90.30
35305;DHT22;26433;48.034;-1.764;2023-04-15T05:41:46;8.80;90.40
35305;DHT22;26433;48.034;-1.764;2023-04-15T05:46:51;8.80;90.50
35305;DHT22;26433;48.034;-1.764;2023-04-15T05:51:54;8.80;90.40
35305;DHT22;26433;48.034;-1.764;2023-04-15T05:56:58;8.90;90.40
35305;DHT22;26433;48.034;-1.764;2023-04-15T06:02:03;9.00;90.20
35305;DHT22;26433;48.034;-1.764;2023-04-15T06:07:07;9.10;90.00
35305;DHT22;26433;48.034;-1.764;2023-04-15T06:12:10;9.20;90.00
35305;DHT22;26433;48.034;-1.764;2023-04-15T06:17:15;9.30;89.70
35305;DHT22;26433;48.034;-1.764;2023-04-15T06:22:20;9.40;89.40
35305;DHT22;26433;48.034;-1.764;2023-04-15T06:27:24;9.50;89.20
35305;DHT22;26433;48.034;-1.764;2023-04-15T06:32:29;9.60;89.20
35305;DHT22;26433;48.034;-1.764;2023-04-15T06:37:32;9.80;88.80
35305;DHT22;26433;48.034;-1.764;2023-04-15T06:42:35;10.00;88.60
35305;DHT22;26433;48.034;-1.764;2023-04-15T06:47:40;10.10;88.40
35305;DHT22;26433;48.034;-1.764;2023-04-15T06:52:44;10.30;88.00
35305;DHT22;26433;48.034;-1.764;2023-04-15T06:57:48;10.40;87.80
35305;DHT22;26433;48.034;-1.764;2023-04-15T07:02:52;10.60;87.30
35305;DHT22;26433;48.034;-1.764;2023-04-15T07:07:59;10.90;87.00
35305;DHT22;26433;48.034;-1.764;2023-04-15T07:13:03;11.10;86.60
35305;DHT22;26433;48.034;-1.764;2023-04-15T07:18:07;11.30;86.40
35305;DHT22;26433;48.034;-1.764;2023-04-15T07:23:11;11.40;86.20
35305;DHT22;26433;48.034;-1.764;2023-04-15T07:28:15;11.60;86.30
35305;DHT22;26433;48.034;-1.764;2023-04-15T07:33:19;12.50;86.20
35305;DHT22;26433;48.034;-1.764;2023-04-15T07:38:23;12.10;85.40
35305;DHT22;26433;48.034;-1.764;2023-04-15T07:43:26;12.30;85.50
35305;DHT22;26433;48.034;-1.764;2023-04-15T07:48:31;12.50;84.80
35305;DHT22;26433;48.034;-1.764;2023-04-15T07:53:37;12.70;84.40
35305;DHT22;26433;48.034;-1.764;2023-04-15T07:58:40;12.90;84.50
35305;DHT22;26433;48.034;-1.764;2023-04-15T08:03:45;13.10;84.10
35305;DHT22;26433;48.034;-1.764;2023-04-15T08:08:49;13.30;83.70
35305;DHT22;26433;48.034;-1.764;2023-04-15T08:13:53;13.40;83.50
35305;DHT22;26433;48.034;-1.764;2023-04-15T08:18:58;13.60;83.60
35305;DHT22;26433;48.034;-1.764;2023-04-15T08:24:02;13.70;83.30
35305;DHT22;26433;48.034;-1.764;2023-04-15T08:29:06;13.90;83.10
35305;DHT22;26433;48.034;-1.764;2023-04-15T08:34:11;14.00;82.90
35305;DHT22;26433;48.034;-1.764;2023-04-15T08:39:15;14.30;82.20
35305;DHT22;26433;48.034;-1.764;2023-04-15T08:44:18;13.70;81.50
35305;DHT22;26433;48.034;-1.764;2023-04-15T08:49:24;14.90;80.80
35305;DHT22;26433;48.034;-1.764;2023-04-15T08:54:29;15.20;79.60
35305;DHT22;26433;48.034;-1.764;2023-04-15T08:59:33;15.50;79.20
35305;DHT22;26433;48.034;-1.764;2023-04-15T09:04:38;16.10;77.50
35305;DHT22;26433;48.034;-1.764;2023-04-15T09:09:41;16.90;74.90
35305;DHT22;26433;48.034;-1.764;2023-04-15T09:14:45;17.70;72.80
35305;DHT22;26433;48.034;-1.764;2023-04-15T09:19:50;18.20;71.10
35305;DHT22;26433;48.034;-1.764;2023-04-15T09:25:25;18.40;71.10
35305;DHT22;26433;48.034;-1.764;2023-04-15T09:30:29;18.70;70.80
35305;DHT22;26433;48.034;-1.764;2023-04-15T09:35:34;19.20;69.60
35305;DHT22;26433;48.034;-1.764;2023-04-15T09:40:38;19.50;69.40
35305;DHT22;26433;48.034;-1.764;2023-04-15T09:45:46;19.80;68.70
35305;DHT22;26433;48.034;-1.764;2023-04-15T09:50:51;20.20;67.50
35305;DHT22;26433;48.034;-1.764;2023-04-15T09:55:57;20.40;67.20
35305;DHT22;26433;48.034;-1.764;2023-04-15T10:01:02;20.60;66.60
35305;DHT22;26433;48.034;-1.764;2023-04-15T10:06:08;20.50;66.90
35305;DHT22;26433;48.034;-1.764;2023-04-15T10:11:12;20.60;67.10
35305;DHT22;26433;48.034;-1.764;2023-04-15T10:16:17;21.10;66.00
35305;DHT22;26433;48.034;-1.764;2023-04-15T10:21:23;21.40;64.60
35305;DHT22;26433;48.034;-1.764;2023-04-15T10:26:26;21.50;64.40
35305;DHT22;26433;48.034;-1.764;2023-04-15T10:31:30;21.80;63.70
35305;DHT22;26433;48.034;-1.764;2023-04-15T10:36:35;22.20;62.70
35305;DHT22;26433;48.034;-1.764;2023-04-15T10:41:38;22.50;61.60
35305;DHT22;26433;48.034;-1.764;2023-04-15T10:46:42;22.50;60.60
35305;DHT22;26433;48.034;-1.764;2023-04-15T10:51:50;22.60;60.10
35305;DHT22;26433;48.034;-1.764;2023-04-15T10:57:06;22.80;59.40
35305;DHT22;26433;48.034;-1.764;2023-04-15T11:02:11;22.90;58.60
35305;DHT22;26433;48.034;-1.764;2023-04-15T11:07:30;23.10;58.50
35305;DHT22;26433;48.034;-1.764;2023-04-15T11:12:35;23.40;57.60
35305;DHT22;26433;48.034;-1.764;2023-04-15T11:17:38;23.70;57.00
35305;DHT22;26433;48.034;-1.764;2023-04-15T11:22:47;23.80;56.40
35305;DHT22;26433;48.034;-1.764;2023-04-15T11:27:51;23.60;56.50
35305;DHT22;26433;48.034;-1.764;2023-04-15T11:32:57;23.60;56.20
35305;DHT22;26433;48.034;-1.764;2023-04-15T11:38:03;23.90;55.70
35305;DHT22;26433;48.034;-1.764;2023-04-15T11:43:06;24.10;54.80
35305;DHT22;26433;48.034;-1.764;2023-04-15T11:48:10;24.40;54.20
35305;DHT22;26433;48.034;-1.764;2023-04-15T11:53:15;21.70;52.10
35305;DHT22;26433;48.034;-1.764;2023-04-15T11:58:19;24.60;53.30
35305;DHT22;26433;48.034;-1.764;2023-04-15T12:03:23;24.20;53.40
35305;DHT22;26433;48.034;-1.764;2023-04-15T12:13:48;24.10;53.40
35305;DHT22;26433;48.034;-1.764;2023-04-15T12:18:52;24.40;52.80
35305;DHT22;26433;48.034;-1.764;2023-04-15T12:24:00;24.70;51.90
35305;DHT22;26433;48.034;-1.764;2023-04-15T12:29:06;24.80;51.50
35305;DHT22;26433;48.034;-1.764;2023-04-15T12:34:10;25.00;51.50
35305;DHT22;26433;48.034;-1.764;2023-04-15T12:39:13;25.20;51.20
35305;DHT22;26433;48.034;-1.764;2023-04-15T12:44:18;25.30;50.60
35305;DHT22;26433;48.034;-1.764;2023-04-15T12:49:22;25.60;49.90
35305;DHT22;26433;48.034;-1.764;2023-04-15T12:54:26;25.50;49.50
35305;DHT22;26433;48.034;-1.764;2023-04-15T12:59:31;25.80;49.30
35305;DHT22;26433;48.034;-1.764;2023-04-15T13:04:34;24.00;48.10
35305;DHT22;26433;48.034;-1.764;2023-04-15T13:09:38;25.50;48.90
35305;DHT22;26433;48.034;-1.764;2023-04-15T13:14:43;25.40;49.20
35305;DHT22;26433;48.034;-1.764;2023-04-15T13:19:46;25.30;48.60
35305;DHT22;26433;48.034;-1.764;2023-04-15T13:24:50;25.30;48.30
35305;DHT22;26433;48.034;-1.764;2023-04-15T13:29:54;25.10;48.20
35305;DHT22;26433;48.034;-1.764;2023-04-15T13:34:58;24.90;48.20
35305;DHT22;26433;48.034;-1.764;2023-04-15T13:40:01;24.80;48.20
35305;DHT22;26433;48.034;-1.764;2023-04-15T13:45:07;24.90;47.90
35305;DHT22;26433;48.034;-1.764;2023-04-15T13:50:10;24.90;47.70
35305;DHT22;26433;48.034;-1.764;2023-04-15T13:55:14;24.70;47.70
35305;DHT22;26433;48.034;-1.764;2023-04-15T14:00:26;24.80;47.70
35305;DHT22;26433;48.034;-1.764;2023-04-15T14:05:29;24.90;47.40
35305;DHT22;26433;48.034;-1.764;2023-04-15T14:10:33;25.10;47.20
35305;DHT22;26433;48.034;-1.764;2023-04-15T14:15:38;24.90;47.00
35305;DHT22;26433;48.034;-1.764;2023-04-15T14:20:42;24.70;47.10
35305;DHT22;26433;48.034;-1.764;2023-04-15T14:25:45;24.40;47.10
35305;DHT22;26433;48.034;-1.764;2023-04-15T14:30:50;24.10;47.30
35305;DHT22;26433;48.034;-1.764;2023-04-15T14:35:54;24.10;47.50
35305;DHT22;26433;48.034;-1.764;2023-04-15T14:40:57;23.80;47.70
35305;DHT22;26433;48.034;-1.764;2023-04-15T14:46:03;23.90;47.60
35305;DHT22;26433;48.034;-1.764;2023-04-15T14:51:07;23.60;47.70
35305;DHT22;26433;48.034;-1.764;2023-04-15T14:56:10;23.30;48.00
35305;DHT22;26433;48.034;-1.764;2023-04-15T15:01:15;22.90;48.40
35305;DHT22;26433;48.034;-1.764;2023-04-15T15:06:19;22.40;48.80
35305;DHT22;26433;48.034;-1.764;2023-04-15T15:11:22;22.10;49.10
35305;DHT22;26433;48.034;-1.764;2023-04-15T15:16:27;21.70;49.40
35305;DHT22;26433;48.034;-1.764;2023-04-15T15:21:31;21.40;49.50
35305;DHT22;26433;48.034;-1.764;2023-04-15T15:26:34;21.10;49.90
35305;DHT22;26433;48.034;-1.764;2023-04-15T15:31:39;20.60;50.20
35305;DHT22;26433;48.034;-1.764;2023-04-15T15:36:42;20.30;50.50
35305;DHT22;26433;48.034;-1.764;2023-04-15T15:41:46;20.00;50.70
35305;DHT22;26433;48.034;-1.764;2023-04-15T15:46:50;19.60;50.80
35305;DHT22;26433;48.034;-1.764;2023-04-15T15:51:54;19.30;51.20
35305;DHT22;26433;48.034;-1.764;2023-04-15T15:56:58;19.10;51.30
35305;DHT22;26433;48.034;-1.764;2023-04-15T16:02:02;18.80;51.30
35305;DHT22;26433;48.034;-1.764;2023-04-15T16:07:07;18.50;51.60
35305;DHT22;26433;48.034;-1.764;2023-04-15T16:12:10;18.30;51.70
35305;DHT22;26433;48.034;-1.764;2023-04-15T16:17:15;18.20;51.90
35305;DHT22;26433;48.034;-1.764;2023-04-15T16:22:19;18.00;52.00
35305;DHT22;26433;48.034;-1.764;2023-04-15T16:27:22;17.80;52.20
35305;DHT22;26433;48.034;-1.764;2023-04-15T16:32:27;17.70;52.30
35305;DHT22;26433;48.034;-1.764;2023-04-15T16:37:30;17.60;52.30
35305;DHT22;26433;48.034;-1.764;2023-04-15T16:42:34;17.50;52.50
35305;DHT22;26433;48.034;-1.764;2023-04-15T16:47:39;17.50;52.50
35305;DHT22;26433;48.034;-1.764;2023-04-15T16:52:42;15.20;51.30
35305;DHT22;26433;48.034;-1.764;2023-04-15T16:57:46;17.30;52.80
35305;DHT22;26433;48.034;-1.764;2023-04-15T17:03:03;17.10;52.80
35305;DHT22;26433;48.034;-1.764;2023-04-15T17:08:07;17.00;53.00
35305;DHT22;26433;48.034;-1.764;2023-04-15T17:13:10;16.90;53.10
35305;DHT22;26433;48.034;-1.764;2023-04-15T17:18:15;16.90;53.10
35305;DHT22;26433;48.034;-1.764;2023-04-15T17:23:18;16.80;53.20
35305;DHT22;26433;48.034;-1.764;2023-04-15T17:28:22;16.70;53.40
35305;DHT22;26433;48.034;-1.764;2023-04-15T17:33:27;16.50;53.50
35305;DHT22;26433;48.034;-1.764;2023-04-15T17:38:50;16.30;53.70
35305;DHT22;26433;48.034;-1.764;2023-04-15T17:43:54;16.20;53.90
35305;DHT22;26433;48.034;-1.764;2023-04-15T17:48:59;16.10;54.00
35305;DHT22;26433;48.034;-1.764;2023-04-15T17:54:02;16.00;54.10
35305;DHT22;26433;48.034;-1.764;2023-04-15T17:59:06;15.90;54.30
35305;DHT22;26433;48.034;-1.764;2023-04-15T18:04:11;15.80;54.40
35305;DHT22;26433;48.034;-1.764;2023-04-15T18:09:15;15.60;54.50
35305;DHT22;26433;48.034;-1.764;2023-04-15T18:14:18;15.40;54.80
35305;DHT22;26433;48.034;-1.764;2023-04-15T18:19:37;15.20;54.80
35305;DHT22;26433;48.034;-1.764;2023-04-15T18:24:40;15.20;55.00
35305;DHT22;26433;48.034;-1.764;2023-04-15T18:29:43;15.00;55.00
35305;DHT22;26433;48.034;-1.764;2023-04-15T18:34:48;14.90;55.20
35305;DHT22;26433;48.034;-1.764;2023-04-15T18:39:52;14.80;55.30
35305;DHT22;26433;48.034;-1.764;2023-04-15T18:44:56;14.60;54.90
35305;DHT22;26433;48.034;-1.764;2023-04-15T18:50:00;14.50;55.60
35305;DHT22;26433;48.034;-1.764;2023-04-15T18:55:04;14.40;55.70
35305;DHT22;26433;48.034;-1.764;2023-04-15T19:00:08;14.30;55.90
35305;DHT22;26433;48.034;-1.764;2023-04-15T19:05:13;14.20;56.00
35305;DHT22;26433;48.034;-1.764;2023-04-15T19:10:17;14.10;56.20
35305;DHT22;26433;48.034;-1.764;2023-04-15T19:15:20;13.90;56.30
35305;DHT22;26433;48.034;-1.764;2023-04-15T19:20:25;13.70;56.00
35305;DHT22;26433;48.034;-1.764;2023-04-15T19:25:29;13.60;56.50
35305;DHT22;26433;48.034;-1.764;2023-04-15T19:30:32;13.60;56.70
35305;DHT22;26433;48.034;-1.764;2023-04-15T19:35:38;13.50;56.80
35305;DHT22;26433;48.034;-1.764;2023-04-15T19:40:41;13.40;56.90
35305;DHT22;26433;48.034;-1.764;2023-04-15T19:45:45;13.40;57.10
35305;DHT22;26433;48.034;-1.764;2023-04-15T19:50:51;13.10;56.70
35305;DHT22;26433;48.034;-1.764;2023-04-15T19:55:55;13.20;57.30
35305;DHT22;26433;48.034;-1.764;2023-04-15T20:00:58;13.00;57.50
35305;DHT22;26433;48.034;-1.764;2023-04-15T20:06:03;12.90;57.70
35305;DHT22;26433;48.034;-1.764;2023-04-15T20:11:07;12.90;57.70
35305;DHT22;26433;48.034;-1.764;2023-04-15T20:16:11;12.70;57.80
35305;DHT22;26433;48.034;-1.764;2023-04-15T20:21:15;12.50;58.10
35305;DHT22;26433;48.034;-1.764;2023-04-15T20:26:19;12.50;58.20
35305;DHT22;26433;48.034;-1.764;2023-04-15T20:31:22;12.40;58.20
35305;DHT22;26433;48.034;-1.764;2023-04-15T20:36:27;12.40;58.40
35305;DHT22;26433;48.034;-1.764;2023-04-15T20:41:30;12.40;58.30
35305;DHT22;26433;48.034;-1.764;2023-04-15T20:46:34;12.40;58.40
35305;DHT22;26433;48.034;-1.764;2023-04-15T20:51:39;12.30;58.40
35305;DHT22;26433;48.034;-1.764;2023-04-15T20:56:42;12.30;58.40
35305;DHT22;26433;48.034;-1.764;2023-04-15T21:01:46;12.10;58.10
35305;DHT22;26433;48.034;-1.764;2023-04-15T21:06:51;12.00;58.80
35305;DHT22;26433;48.034;-1.764;2023-04-15T21:11:54;11.90;59.20
35305;DHT22;26433;48.034;-1.764;2023-04-15T21:17:03;11.80;59.40
35305;DHT22;26433;48.034;-1.764;2023-04-15T21:22:12;11.80;59.80
35305;DHT22;26433;48.034;-1.764;2023-04-15T21:27:16;11.70;59.20
35305;DHT22;26433;48.034;-1.764;2023-04-15T21:32:19;11.60;59.40
35305;DHT22;26433;48.034;-1.764;2023-04-15T21:37:24;11.50;59.60
35305;DHT22;26433;48.034;-1.764;2023-04-15T21:42:28;11.40;59.70
35305;DHT22;26433;48.034;-1.764;2023-04-15T21:47:31;11.40;59.90
35305;DHT22;26433;48.034;-1.764;2023-04-15T21:52:56;11.40;59.50
35305;DHT22;26433;48.034;-1.764;2023-04-15T21:57:59;11.20;59.60
35305;DHT22;26433;48.034;-1.764;2023-04-15T22:03:03;11.00;59.80
35305;DHT22;26433;48.034;-1.764;2023-04-15T22:08:08;11.10;60.30
35305;DHT22;26433;48.034;-1.764;2023-04-15T22:13:11;11.10;59.70
35305;DHT22;26433;48.034;-1.764;2023-04-15T22:18:15;11.10;60.20
35305;DHT22;26433;48.034;-1.764;2023-04-15T22:23:20;11.10;60.30
35305;DHT22;26433;48.034;-1.764;2023-04-15T22:28:23;11.00;60.30
